createdAt,value
2019-01-05T00:02:28.047Z,15.45
2019-01-05T00:05:23.171Z,12.53
2019-01-05T00:08:21.398Z,13.18
2019-01-05T00:11:19.793Z,12.35
2019-01-05T00:14:15.162Z,12.50
2019-01-05T00:17:03.870Z,10.40
2019-01-05T00:19:52.865Z,9.50
2019-01-05T00:22:51.326Z,14.18
2019-01-05T00:25:49.950Z,9.25
2019-01-05T00:28:38.546Z,10.25
2019-01-05T00:31:43.238Z,11.93
2019-01-05T00:34:48.085Z,11.08
2019-01-05T00:37:36.271Z,11.93
2019-01-05T00:40:24.681Z,13.08
2019-01-05T00:43:08.497Z,14.53
2019-01-05T00:46:02.101Z,10.60
2019-01-05T00:49:03.171Z,11.15
2019-01-05T00:51:55.305Z,9.15
2019-01-05T00:55:00.236Z,10.32
2019-01-05T00:57:49.840Z,10.23
2019-01-05T01:00:39.138Z,11.00
2019-01-05T01:03:27.209Z,8.33
2019-01-05T01:06:25.763Z,8.60
2019-01-05T01:09:24.259Z,6.80
2019-01-05T01:12:16.291Z,11.73
2019-01-05T01:15:13.858Z,11.28
2019-01-05T01:17:59.485Z,8.45
2019-01-05T01:20:47.599Z,10.13
2019-01-05T01:23:39.351Z,6.75
2019-01-05T01:26:22.751Z,7.90
2019-01-05T01:29:10.458Z,5.97
2019-01-05T01:32:05.557Z,8.23
2019-01-05T01:34:53.686Z,8.78
2019-01-05T01:38:05.898Z,8.35
2019-01-05T01:40:55.217Z,6.70
2019-01-05T01:43:53.655Z,5.65
2019-01-05T01:46:35.714Z,7.97
2019-01-05T01:49:39.794Z,7.58
2019-01-05T01:52:28.818Z,6.80
2019-01-05T01:55:21.102Z,8.88
2019-01-05T01:58:24.135Z,8.90
2019-01-05T02:01:16.466Z,9.95
2019-01-05T02:04:06.059Z,9.85
2019-01-05T02:06:54.640Z,7.12
2019-01-05T02:09:44.852Z,6.95
2019-01-05T02:12:33.687Z,7.17
2019-01-05T02:15:29.852Z,9.08
2019-01-05T02:18:56.900Z,7.85
2019-01-05T02:22:34.270Z,6.60
2019-01-05T02:26:08.329Z,8.10
2019-01-05T02:29:24.718Z,7.25
2019-01-05T02:33:17.888Z,7.58
2019-01-05T02:36:50.270Z,5.55
2019-01-05T02:40:29.438Z,6.53
2019-01-05T02:43:59.634Z,8.03
2019-01-05T02:47:37.778Z,6.97
2019-01-05T02:51:11.781Z,6.90
2019-01-05T02:54:58.747Z,5.87
2019-01-05T02:58:29.689Z,9.10
2019-01-05T03:02:11.349Z,9.20
2019-01-05T03:05:38.074Z,7.75
2019-01-05T03:09:31.963Z,8.78
2019-01-05T03:12:44.733Z,10.20
2019-01-05T03:16:06.748Z,6.95
2019-01-05T03:19:45.988Z,10.05
2019-01-05T03:23:15.160Z,10.08
2019-01-05T03:27:01.058Z,9.08
2019-01-05T03:30:21.869Z,10.98
2019-01-05T03:33:58.056Z,11.10
2019-01-05T03:37:26.141Z,8.68
2019-01-05T03:40:54.531Z,10.88
2019-01-05T03:44:39.223Z,8.28
2019-01-05T03:48:13.686Z,8.40
2019-01-05T03:51:53.831Z,8.03
2019-01-05T03:55:11.151Z,8.25
2019-01-05T03:58:26.013Z,14.50
2019-01-05T04:01:34.804Z,9.60
2019-01-05T04:05:23.239Z,6.03
2019-01-05T04:09:07.331Z,10.10
2019-01-05T04:12:35.133Z,7.72
2019-01-05T04:16:04.371Z,5.72
2019-01-05T04:19:58.098Z,8.45
2019-01-05T04:23:29.737Z,9.00
2019-01-05T04:26:45.564Z,6.80
2019-01-05T04:30:27.600Z,6.28
2019-01-05T04:34:12.771Z,5.03
2019-01-05T04:37:41.478Z,6.40
2019-01-05T04:41:22.660Z,5.40
2019-01-05T04:44:39.330Z,6.33
2019-01-05T04:48:33.587Z,5.33
2019-01-05T04:51:57.211Z,4.92
2019-01-05T04:56:00.900Z,7.50
2019-01-05T04:59:18.346Z,4.62
2019-01-05T05:02:48.728Z,6.87
2019-01-05T05:06:36.548Z,4.08
2019-01-05T05:10:06.256Z,3.80
2019-01-05T05:13:21.738Z,5.03
2019-01-05T05:16:47.562Z,3.22
2019-01-05T05:20:11.421Z,5.83
2019-01-05T05:23:58.488Z,4.72
2019-01-05T05:27:31.698Z,3.62
2019-01-05T05:31:19.042Z,4.03
2019-01-05T05:34:33.497Z,4.40
2019-01-05T05:38:14.155Z,3.67
2019-01-05T05:41:48.798Z,3.40
2019-01-05T05:45:13.255Z,3.33
2019-01-05T05:48:32.995Z,2.35
2019-01-05T05:52:19.753Z,3.15
2019-01-05T05:55:58.594Z,2.75
2019-01-05T05:59:17.608Z,2.42
2019-01-05T06:02:54.308Z,3.60
2019-01-05T06:06:18.125Z,2.42
2019-01-05T06:09:51.654Z,2.67
2019-01-05T06:14:01.526Z,2.40
2019-01-05T06:17:34.600Z,2.80
2019-01-05T06:20:47.811Z,2.77
2019-01-05T06:24:28.943Z,3.15
2019-01-05T06:28:13.896Z,2.27
2019-01-05T06:31:26.402Z,2.62
2019-01-05T06:35:18.798Z,2.83
2019-01-05T06:38:52.749Z,2.37
2019-01-05T06:42:24.950Z,2.20
2019-01-05T06:45:52.764Z,2.62
2019-01-05T06:49:21.990Z,2.58
2019-01-05T06:53:23.643Z,2.25
2019-01-05T06:56:58.634Z,2.05
2019-01-05T07:00:30.887Z,2.25
2019-01-05T07:04:21.102Z,2.75
2019-01-05T07:07:52.151Z,3.27
2019-01-05T07:11:36.487Z,3.65
2019-01-05T07:15:06.092Z,2.22
2019-01-05T07:18:38.936Z,3.15
2019-01-05T07:22:22.291Z,3.35
2019-01-05T07:25:46.143Z,2.50
2019-01-05T07:29:10.198Z,2.67
2019-01-05T07:32:47.926Z,3.47
2019-01-05T07:36:10.318Z,3.40
2019-01-05T07:40:02.044Z,4.00
2019-01-05T07:43:30.011Z,2.70
2019-01-05T07:47:05.993Z,3.60
2019-01-05T07:50:55.821Z,3.87
2019-01-05T07:54:24.718Z,4.03
2019-01-05T07:58:24.122Z,4.97
2019-01-05T08:01:59.078Z,4.47
2019-01-05T08:05:34.164Z,4.83
2019-01-05T08:08:58.734Z,6.00
2019-01-05T08:12:36.882Z,4.78
2019-01-05T08:16:15.486Z,6.78
2019-01-05T08:19:45.160Z,5.97
2019-01-05T08:23:33.446Z,8.23
2019-01-05T08:27:17.758Z,8.43
2019-01-05T08:30:38.869Z,5.03
2019-01-05T08:34:22.925Z,6.15
2019-01-05T08:37:48.659Z,8.45
2019-01-05T08:41:21.249Z,6.65
2019-01-05T08:45:16.576Z,5.05
2019-01-05T08:48:47.546Z,5.00
2019-01-05T08:52:14.288Z,6.65
2019-01-05T08:56:04.724Z,5.72
2019-01-05T08:59:49.170Z,6.22
2019-01-05T09:03:26.198Z,5.70
2019-01-05T09:06:53.404Z,5.05
2019-01-05T09:10:46.920Z,6.55
2019-01-05T09:14:17.210Z,3.85
2019-01-05T09:17:47.692Z,4.60
2019-01-05T09:21:02.824Z,4.03
2019-01-05T09:24:50.012Z,4.80
2019-01-05T09:28:45.842Z,5.95
2019-01-05T09:32:06.428Z,4.03
2019-01-05T09:35:31.704Z,5.00
2019-01-05T09:39:19.392Z,5.00
2019-01-05T09:42:57.821Z,6.62
2019-01-05T09:46:24.363Z,4.45
2019-01-05T09:49:53.429Z,7.22
2019-01-05T09:53:26.844Z,6.00
2019-01-05T09:57:31.822Z,4.87
2019-01-05T10:00:55.442Z,4.20
2019-01-05T10:04:33.360Z,6.25
2019-01-05T10:07:58.624Z,3.72
2019-01-05T10:11:28.503Z,4.45
2019-01-05T10:14:57.956Z,4.25
2019-01-05T10:18:31.634Z,3.35
2019-01-05T10:21:55.660Z,2.65
2019-01-05T10:25:24.249Z,4.10
2019-01-05T10:29:01.410Z,3.60
2019-01-05T10:32:26.656Z,3.87
2019-01-05T10:36:10.350Z,3.95
2019-01-05T10:39:46.842Z,3.92
2019-01-05T10:43:35.976Z,2.50
2019-01-05T10:47:05.860Z,2.83
2019-01-05T10:50:38.318Z,3.25
2019-01-05T10:54:12.641Z,4.12
2019-01-05T10:57:43.316Z,2.80
2019-01-05T11:01:23.555Z,2.33
2019-01-05T11:04:55.982Z,3.25
2019-01-05T11:09:02.754Z,4.03
2019-01-05T11:12:40.208Z,1.95
2019-01-05T11:16:13.822Z,3.35
2019-01-05T11:19:39.194Z,3.55
2019-01-05T11:23:07.442Z,3.72
2019-01-05T11:26:31.562Z,4.58
2019-01-05T11:30:05.210Z,2.70
2019-01-05T11:33:58.953Z,3.40
2019-01-05T11:37:17.942Z,2.20
2019-01-05T11:40:44.350Z,3.77
2019-01-05T11:44:12.244Z,3.17
2019-01-05T11:47:53.630Z,4.05
2019-01-05T11:51:40.772Z,2.75
2019-01-05T11:55:15.292Z,2.90
2019-01-05T11:59:02.846Z,4.30
2019-01-05T12:02:43.528Z,4.00
2019-01-05T12:06:18.280Z,3.35
2019-01-05T12:10:11.728Z,2.60
2019-01-05T12:13:57.868Z,3.15
2019-01-05T12:17:35.408Z,3.25
2019-01-05T12:21:00.342Z,2.80
2019-01-05T12:24:39.711Z,2.62
2019-01-05T12:27:55.734Z,4.75
2019-01-05T12:31:30.448Z,2.80
2019-01-05T12:35:08.544Z,3.08
2019-01-05T12:38:53.006Z,3.92
2019-01-05T12:42:35.364Z,2.80
2019-01-05T12:46:13.910Z,3.55
2019-01-05T12:49:52.116Z,2.30
2019-01-05T12:53:15.036Z,3.12
2019-01-05T12:57:03.350Z,3.80
2019-01-05T13:00:37.442Z,2.40
2019-01-05T13:04:01.182Z,2.47
2019-01-05T13:07:24.452Z,3.30
2019-01-05T13:11:02.276Z,2.80
2019-01-05T13:14:19.612Z,4.95
2019-01-05T13:17:49.633Z,3.98
2019-01-05T13:21:59.028Z,3.17
2019-01-05T13:25:24.511Z,2.60
2019-01-05T13:29:05.609Z,5.55
2019-01-05T13:33:07.074Z,2.85
2019-01-05T13:36:31.596Z,3.87
2019-01-05T13:40:12.800Z,4.33
2019-01-05T13:44:16.600Z,3.92
2019-01-05T13:47:53.850Z,3.42
2019-01-05T13:51:34.448Z,3.40
2019-01-05T13:54:36.174Z,2.80
2019-01-05T13:57:33.280Z,2.80
2019-01-05T14:00:40.677Z,3.00
2019-01-05T14:03:28.390Z,3.25
2019-01-05T14:06:30.079Z,2.30
2019-01-05T14:09:18.326Z,2.12
2019-01-05T14:12:13.468Z,2.58
2019-01-05T14:15:06.456Z,2.70
2019-01-05T14:18:05.232Z,2.85
2019-01-05T14:21:06.707Z,2.83
2019-01-05T14:23:54.546Z,3.27
2019-01-05T14:26:52.714Z,4.33
2019-01-05T14:29:42.050Z,3.65
2019-01-05T14:32:29.920Z,2.87
2019-01-05T14:35:15.595Z,2.98
2019-01-05T14:38:03.594Z,3.22
2019-01-05T14:40:59.128Z,2.27
2019-01-05T14:43:42.452Z,3.08
2019-01-05T14:46:27.044Z,2.92
2019-01-05T14:49:16.317Z,3.45
2019-01-05T14:52:08.822Z,2.35
2019-01-05T14:54:58.160Z,2.87
2019-01-05T14:57:48.556Z,2.20
2019-01-05T15:00:49.876Z,1.95
2019-01-05T15:03:45.085Z,3.40
2019-01-05T15:06:33.194Z,2.67
2019-01-05T15:09:37.614Z,2.70
2019-01-05T15:12:33.120Z,2.20
2019-01-05T15:15:25.507Z,3.50
2019-01-05T15:18:14.140Z,2.10
2019-01-05T15:21:02.155Z,4.28
2019-01-05T15:23:43.033Z,3.08
2019-01-05T15:26:41.522Z,3.08
2019-01-05T15:29:30.771Z,1.80
2019-01-05T15:32:20.100Z,2.70
2019-01-05T15:35:24.758Z,2.72
2019-01-05T15:38:12.784Z,2.27
2019-01-05T15:41:00.576Z,2.75
2019-01-05T15:44:04.083Z,2.35
2019-01-05T15:46:56.256Z,3.90
2019-01-05T15:49:49.769Z,2.40
2019-01-05T15:52:36.098Z,2.95
2019-01-05T15:55:40.610Z,2.12
2019-01-05T15:58:28.648Z,2.50
2019-01-05T16:01:27.162Z,2.70
2019-01-05T16:04:28.422Z,1.90
2019-01-05T16:07:16.425Z,2.40
2019-01-05T16:10:04.351Z,2.35
2019-01-05T16:13:02.809Z,2.52
2019-01-05T16:15:54.906Z,2.10
2019-01-05T16:18:42.778Z,2.47
2019-01-05T16:21:44.174Z,2.35
2019-01-05T16:24:48.296Z,2.52
2019-01-05T16:27:49.751Z,2.27
2019-01-05T16:30:57.116Z,3.62
2019-01-05T16:33:45.040Z,2.90
2019-01-05T16:36:32.751Z,1.90
2019-01-05T16:39:30.832Z,2.80
2019-01-05T16:42:32.036Z,1.70
2019-01-05T16:45:17.760Z,2.00
2019-01-05T16:48:05.628Z,2.10
2019-01-05T16:51:10.254Z,2.27
2019-01-05T16:53:59.772Z,2.45
2019-01-05T16:56:50.598Z,1.90
2019-01-05T16:59:39.167Z,2.00
2019-01-05T17:02:46.708Z,2.60
2019-01-05T17:05:48.449Z,1.80
2019-01-05T17:08:31.496Z,2.00
2019-01-05T17:11:23.366Z,2.05
2019-01-05T17:14:21.882Z,2.50
2019-01-05T17:17:13.836Z,2.42
2019-01-05T17:20:02.108Z,6.33
2019-01-05T17:23:00.619Z,2.80
2019-01-05T17:26:05.749Z,3.17
2019-01-05T17:28:53.672Z,2.65
2019-01-05T17:31:32.179Z,3.55
2019-01-05T17:34:24.393Z,2.80
2019-01-05T17:37:28.338Z,3.17
2019-01-05T17:40:26.574Z,2.02
2019-01-05T17:43:08.086Z,2.20
2019-01-05T17:46:12.595Z,1.87
2019-01-05T17:49:04.878Z,3.90
2019-01-05T17:51:52.372Z,2.72
2019-01-05T17:54:44.382Z,3.25
2019-01-05T17:57:36.602Z,2.42
2019-01-05T18:00:24.888Z,2.72
2019-01-05T18:03:26.512Z,2.52
2019-01-05T18:06:23.418Z,2.52
2019-01-05T18:09:26.911Z,3.95
2019-01-05T18:12:28.181Z,3.58
2019-01-05T18:15:17.492Z,4.08
2019-01-05T18:18:05.823Z,3.60
2019-01-05T18:20:53.878Z,2.95
2019-01-05T18:23:46.004Z,4.47
2019-01-05T18:26:34.118Z,3.00
2019-01-05T18:29:26.194Z,3.58
2019-01-05T18:32:14.079Z,3.35
2019-01-05T18:35:09.292Z,3.92
2019-01-05T18:37:58.306Z,2.75
2019-01-05T18:40:59.512Z,2.50
2019-01-05T18:43:47.592Z,2.60
2019-01-05T18:46:34.343Z,2.72
2019-01-05T18:49:42.084Z,3.67
2019-01-05T18:52:31.389Z,3.50
2019-01-05T18:55:19.836Z,3.92
2019-01-05T18:58:13.427Z,3.37
2019-01-05T19:01:20.991Z,3.17
2019-01-05T19:04:16.386Z,3.45
2019-01-05T19:07:04.354Z,3.45
2019-01-05T19:09:52.716Z,4.00
2019-01-05T19:12:40.614Z,5.10
2019-01-05T19:15:37.215Z,3.05
2019-01-05T19:18:44.687Z,4.28
2019-01-05T19:21:30.660Z,3.40
2019-01-05T19:24:37.786Z,3.22
2019-01-05T19:27:42.036Z,2.40
2019-01-05T19:30:25.511Z,3.35
2019-01-05T19:33:13.526Z,4.37
2019-01-05T19:36:02.924Z,4.53
2019-01-05T19:38:55.202Z,3.77
2019-01-05T19:41:44.464Z,2.60
2019-01-05T19:44:32.309Z,2.67
2019-01-05T19:47:33.688Z,3.45
2019-01-05T19:50:28.996Z,2.55
2019-01-05T19:53:18.695Z,3.80
2019-01-05T19:56:22.828Z,2.60
2019-01-05T19:59:10.950Z,3.52
2019-01-05T20:02:00.354Z,3.52
2019-01-05T20:04:52.411Z,2.47
2019-01-05T20:07:42.668Z,2.55
2019-01-05T20:10:40.994Z,3.27
2019-01-05T20:13:33.123Z,3.42
2019-01-05T20:16:31.342Z,2.83
2019-01-05T20:19:19.568Z,6.70
2019-01-05T20:22:02.168Z,7.30
2019-01-05T20:24:51.498Z,4.28
2019-01-05T20:27:39.402Z,3.55
2019-01-05T20:30:27.944Z,2.52
2019-01-05T20:33:32.344Z,3.45
2019-01-05T20:36:21.676Z,4.37
2019-01-05T20:39:16.816Z,3.55
2019-01-05T20:42:05.367Z,3.02
2019-01-05T20:44:57.690Z,3.58
2019-01-05T20:47:45.704Z,4.62
2019-01-05T20:50:39.230Z,4.08
2019-01-05T20:53:27.332Z,4.72
2019-01-05T20:56:19.806Z,3.22
2019-01-05T20:59:07.646Z,3.45
2019-01-05T21:01:55.552Z,2.70
2019-01-05T21:04:51.356Z,3.02
2019-01-05T21:07:46.680Z,2.37
2019-01-05T21:10:40.044Z,2.55
2019-01-05T21:13:29.340Z,2.60
2019-01-05T21:16:21.404Z,3.05
2019-01-05T21:19:23.102Z,3.67
2019-01-05T21:22:21.434Z,4.20
2019-01-05T21:25:09.662Z,3.05
2019-01-05T21:28:04.950Z,2.83
2019-01-05T21:30:50.976Z,3.25
2019-01-05T21:33:39.361Z,4.67
2019-01-05T21:36:30.355Z,2.60
2019-01-05T21:39:35.108Z,3.22
2019-01-05T21:42:22.938Z,4.05
2019-01-05T21:45:12.245Z,4.05
2019-01-05T21:48:05.978Z,2.37
2019-01-05T21:50:57.871Z,4.47
2019-01-05T21:53:45.836Z,3.05
2019-01-05T21:56:53.316Z,3.05
2019-01-05T21:59:41.330Z,3.10
2019-01-05T22:02:29.368Z,3.42
2019-01-05T22:05:18.740Z,3.75
2019-01-05T22:08:02.030Z,2.62
2019-01-05T22:11:00.315Z,3.90
2019-01-05T22:13:52.568Z,3.65
2019-01-05T22:16:40.752Z,4.00
2019-01-05T22:19:39.270Z,2.80
2019-01-05T22:22:27.100Z,3.12
2019-01-05T22:25:19.357Z,3.40
2019-01-05T22:28:07.510Z,4.17
2019-01-05T22:30:55.800Z,3.55
2019-01-05T22:33:45.102Z,2.55
2019-01-05T22:36:30.976Z,2.90
2019-01-05T22:39:19.020Z,2.85
2019-01-05T22:42:07.137Z,2.92
2019-01-05T22:45:05.416Z,2.35
2019-01-05T22:47:57.768Z,3.40
2019-01-05T22:50:53.831Z,3.20
2019-01-05T22:53:51.846Z,2.55
2019-01-05T22:56:40.040Z,4.62
2019-01-05T22:59:27.964Z,3.65
2019-01-05T23:02:29.405Z,3.33
2019-01-05T23:05:18.668Z,3.30
2019-01-05T23:08:06.579Z,2.47
2019-01-05T23:10:55.840Z,3.20
2019-01-05T23:13:43.861Z,2.52
2019-01-05T23:16:51.442Z,3.55
2019-01-05T23:19:39.900Z,2.55
2019-01-05T23:22:27.901Z,3.30
2019-01-05T23:25:17.234Z,2.80
2019-01-05T23:28:05.410Z,3.65
2019-01-05T23:30:59.870Z,3.92
2019-01-05T23:33:49.066Z,2.95
2019-01-05T23:36:56.374Z,3.52
2019-01-05T23:39:54.292Z,2.90
2019-01-05T23:42:42.088Z,3.58
2019-01-05T23:45:24.488Z,3.27
2019-01-05T23:48:19.960Z,3.40
2019-01-05T23:51:08.356Z,3.37
2019-01-05T23:53:56.288Z,2.92
2019-01-05T23:56:44.948Z,2.35
2019-01-05T23:59:36.974Z,2.72
